sensor_id;sensor_type;location;lat;lon;timestamp;P1;durP1;ratioP1;P2;durP2;ratioP2
549;SDS011;20066;48.764;9.176;2023-02-02T00:01:53;4.75;;;2.00;;
549;SDS011;20066;48.764;9.176;2023-02-02T00:04:23;11.50;;;2.50;;
549;SDS011;20066;48.764;9.176;2023-02-02T00:06:52;7.95;;;1.90;;
549;SDS011;20066;48.764;9.176;2023-02-02T00:09:22;6.93;;;1.58;;
549;SDS011;20066;48.764;9.176;2023-02-02T00:11:50;8.10;;;1.83;;
549;SDS011;20066;48.764;9.176;2023-02-02T00:14:19;7.22;;;2.10;;
549;SDS011;20066;48.764;9.176;2023-02-02T00:16:47;8.27;;;2.00;;
549;SDS011;20066;48.764;9.176;2023-02-02T00:19:17;8.57;;;2.83;;
549;SDS011;20066;48.764;9.176;2023-02-02T00:21:47;7.90;;;1.98;;
549;SDS011;20066;48.764;9.176;2023-02-02T00:24:15;13.70;;;2.25;;
549;SDS011;20066;48.764;9.176;2023-02-02T00:26:44;9.85;;;2.00;;
549;SDS011;20066;48.764;9.176;2023-02-02T00:29:15;7.13;;;2.00;;
549;SDS011;20066;48.764;9.176;2023-02-02T00:31:46;6.28;;;2.20;;
549;SDS011;20066;48.764;9.176;2023-02-02T00:34:14;18.75;;;2.65;;
549;SDS011;20066;48.764;9.176;2023-02-02T00:36:43;8.60;;;2.30;;
549;SDS011;20066;48.764;9.176;2023-02-02T00:39:13;9.00;;;2.75;;
549;SDS011;20066;48.764;9.176;2023-02-02T00:41:43;19.67;;;2.47;;
549;SDS011;20066;48.764;9.176;2023-02-02T00:44:11;11.82;;;2.20;;
549;SDS011;20066;48.764;9.176;2023-02-02T00:46:58;15.05;;;3.03;;
549;SDS011;20066;48.764;9.176;2023-02-02T00:49:25;8.57;;;2.45;;
549;SDS011;20066;48.764;9.176;2023-02-02T00:51:53;9.38;;;2.22;;
549;SDS011;20066;48.764;9.176;2023-02-02T00:54:21;6.18;;;2.20;;
549;SDS011;20066;48.764;9.176;2023-02-02T00:56:48;8.77;;;3.47;;
549;SDS011;20066;48.764;9.176;2023-02-02T00:59:16;8.25;;;2.35;;
549;SDS011;20066;48.764;9.176;2023-02-02T01:01:44;12.90;;;2.15;;
549;SDS011;20066;48.764;9.176;2023-02-02T01:04:13;6.07;;;2.00;;
549;SDS011;20066;48.764;9.176;2023-02-02T01:06:41;16.38;;;2.60;;
549;SDS011;20066;48.764;9.176;2023-02-02T01:09:08;11.25;;;2.20;;
549;SDS011;20066;48.764;9.176;2023-02-02T01:11:36;6.50;;;1.52;;
549;SDS011;20066;48.764;9.176;2023-02-02T01:14:04;11.23;;;2.65;;
549;SDS011;20066;48.764;9.176;2023-02-02T01:16:32;14.95;;;2.20;;
549;SDS011;20066;48.764;9.176;2023-02-02T01:18:59;6.38;;;2.28;;
549;SDS011;20066;48.764;9.176;2023-02-02T01:21:29;7.10;;;2.22;;
549;SDS011;20066;48.764;9.176;2023-02-02T01:23:57;7.68;;;2.15;;
549;SDS011;20066;48.764;9.176;2023-02-02T01:26:25;11.85;;;1.83;;
549;SDS011;20066;48.764;9.176;2023-02-02T01:28:53;6.78;;;1.73;;
549;SDS011;20066;48.764;9.176;2023-02-02T01:31:20;12.05;;;2.83;;
549;SDS011;20066;48.764;9.176;2023-02-02T01:33:48;5.53;;;2.03;;
549;SDS011;20066;48.764;9.176;2023-02-02T01:36:17;8.63;;;1.70;;
549;SDS011;20066;48.764;9.176;2023-02-02T01:38:48;4.45;;;2.10;;
549;SDS011;20066;48.764;9.176;2023-02-02T01:41:17;8.10;;;1.90;;
549;SDS011;20066;48.764;9.176;2023-02-02T01:43:50;10.25;;;3.20;;
549;SDS011;20066;48.764;9.176;2023-02-02T01:46:20;4.97;;;1.80;;
549;SDS011;20066;48.764;9.176;2023-02-02T01:48:51;5.75;;;1.70;;
549;SDS011;20066;48.764;9.176;2023-02-02T01:51:23;7.80;;;1.80;;
549;SDS011;20066;48.764;9.176;2023-02-02T01:53:56;7.50;;;2.13;;
549;SDS011;20066;48.764;9.176;2023-02-02T01:56:27;8.23;;;1.80;;
549;SDS011;20066;48.764;9.176;2023-02-02T01:58:58;5.50;;;1.80;;
549;SDS011;20066;48.764;9.176;2023-02-02T02:01:27;8.07;;;2.10;;
549;SDS011;20066;48.764;9.176;2023-02-02T02:03:55;5.53;;;2.03;;
549;SDS011;20066;48.764;9.176;2023-02-02T02:06:23;9.82;;;2.25;;
549;SDS011;20066;48.764;9.176;2023-02-02T02:08:53;4.13;;;1.30;;
549;SDS011;20066;48.764;9.176;2023-02-02T02:11:25;5.82;;;1.83;;
549;SDS011;20066;48.764;9.176;2023-02-02T02:13:54;13.63;;;2.50;;
549;SDS011;20066;48.764;9.176;2023-02-02T02:16:44;4.72;;;1.60;;
549;SDS011;20066;48.764;9.176;2023-02-02T02:19:26;7.18;;;1.40;;
549;SDS011;20066;48.764;9.176;2023-02-02T02:22:32;10.07;;;2.00;;
549;SDS011;20066;48.764;9.176;2023-02-02T02:25:41;7.25;;;1.30;;
549;SDS011;20066;48.764;9.176;2023-02-02T02:34:46;4.38;;;1.30;;
549;SDS011;20066;48.764;9.176;2023-02-02T02:37:22;8.98;;;1.58;;
549;SDS011;20066;48.764;9.176;2023-02-02T02:40:01;5.72;;;1.30;;
549;SDS011;20066;48.764;9.176;2023-02-02T02:42:34;8.05;;;1.70;;
549;SDS011;20066;48.764;9.176;2023-02-02T02:45:06;3.28;;;1.42;;
549;SDS011;20066;48.764;9.176;2023-02-02T02:47:37;4.70;;;1.00;;
549;SDS011;20066;48.764;9.176;2023-02-02T02:50:07;4.22;;;1.40;;
549;SDS011;20066;48.764;9.176;2023-02-02T02:52:36;5.38;;;1.40;;
549;SDS011;20066;48.764;9.176;2023-02-02T02:55:05;5.60;;;1.70;;
549;SDS011;20066;48.764;9.176;2023-02-02T03:00:34;4.82;;;1.83;;
549;SDS011;20066;48.764;9.176;2023-02-02T03:03:13;3.60;;;1.55;;
549;SDS011;20066;48.764;9.176;2023-02-02T03:05:51;10.55;;;1.90;;
549;SDS011;20066;48.764;9.176;2023-02-02T03:08:23;4.75;;;1.48;;
549;SDS011;20066;48.764;9.176;2023-02-02T03:10:55;11.00;;;1.75;;
549;SDS011;20066;48.764;9.176;2023-02-02T03:13:25;6.10;;;1.73;;
549;SDS011;20066;48.764;9.176;2023-02-02T03:15:53;11.82;;;1.70;;
549;SDS011;20066;48.764;9.176;2023-02-02T03:18:24;6.60;;;1.70;;
549;SDS011;20066;48.764;9.176;2023-02-02T03:20:54;5.22;;;1.50;;
549;SDS011;20066;48.764;9.176;2023-02-02T03:23:23;3.90;;;1.45;;
549;SDS011;20066;48.764;9.176;2023-02-02T03:25:50;4.18;;;1.10;;
549;SDS011;20066;48.764;9.176;2023-02-02T03:28:18;6.78;;;1.65;;
549;SDS011;20066;48.764;9.176;2023-02-02T03:30:47;5.05;;;1.27;;
549;SDS011;20066;48.764;9.176;2023-02-02T03:33:16;4.10;;;1.17;;
549;SDS011;20066;48.764;9.176;2023-02-02T03:35:46;3.53;;;1.25;;
549;SDS011;20066;48.764;9.176;2023-02-02T03:38:13;3.42;;;1.05;;
549;SDS011;20066;48.764;9.176;2023-02-02T03:40:41;8.40;;;1.85;;
549;SDS011;20066;48.764;9.176;2023-02-02T03:43:09;3.25;;;1.40;;
549;SDS011;20066;48.764;9.176;2023-02-02T03:45:37;5.15;;;1.10;;
549;SDS011;20066;48.764;9.176;2023-02-02T03:48:06;3.17;;;1.15;;
549;SDS011;20066;48.764;9.176;2023-02-02T03:50:33;6.45;;;1.05;;
549;SDS011;20066;48.764;9.176;2023-02-02T03:53:03;3.33;;;1.00;;
549;SDS011;20066;48.764;9.176;2023-02-02T03:55:31;5.03;;;1.60;;
549;SDS011;20066;48.764;9.176;2023-02-02T03:58:00;4.93;;;1.50;;
549;SDS011;20066;48.764;9.176;2023-02-02T04:00:27;2.67;;;1.10;;
549;SDS011;20066;48.764;9.176;2023-02-02T04:02:55;2.38;;;1.05;;
549;SDS011;20066;48.764;9.176;2023-02-02T04:05:23;6.97;;;1.02;;
549;SDS011;20066;48.764;9.176;2023-02-02T04:07:51;4.40;;;1.17;;
549;SDS011;20066;48.764;9.176;2023-02-02T04:10:20;4.75;;;1.60;;
549;SDS011;20066;48.764;9.176;2023-02-02T04:12:48;2.00;;;1.10;;
549;SDS011;20066;48.764;9.176;2023-02-02T04:15:16;5.30;;;1.48;;
549;SDS011;20066;48.764;9.176;2023-02-02T04:17:44;4.70;;;1.30;;
549;SDS011;20066;48.764;9.176;2023-02-02T04:20:12;10.75;;;1.77;;
549;SDS011;20066;48.764;9.176;2023-02-02T04:22:39;4.50;;;1.38;;
549;SDS011;20066;48.764;9.176;2023-02-02T04:25:07;3.97;;;1.17;;
549;SDS011;20066;48.764;9.176;2023-02-02T04:27:36;4.47;;;1.38;;
549;SDS011;20066;48.764;9.176;2023-02-02T04:30:04;3.20;;;1.27;;
549;SDS011;20066;48.764;9.176;2023-02-02T04:32:34;8.05;;;1.40;;
549;SDS011;20066;48.764;9.176;2023-02-02T04:35:01;4.57;;;1.17;;
549;SDS011;20066;48.764;9.176;2023-02-02T04:37:29;6.75;;;1.10;;
549;SDS011;20066;48.764;9.176;2023-02-02T04:39:58;7.43;;;1.83;;
549;SDS011;20066;48.764;9.176;2023-02-02T04:42:25;3.25;;;1.30;;
549;SDS011;20066;48.764;9.176;2023-02-02T04:44:54;6.30;;;1.80;;
549;SDS011;20066;48.764;9.176;2023-02-02T04:47:22;3.42;;;1.20;;
549;SDS011;20066;48.764;9.176;2023-02-02T04:49:50;6.80;;;1.20;;
549;SDS011;20066;48.764;9.176;2023-02-02T04:52:18;10.77;;;1.90;;
549;SDS011;20066;48.764;9.176;2023-02-02T04:54:45;6.32;;;2.25;;
549;SDS011;20066;48.764;9.176;2023-02-02T04:57:13;2.70;;;1.30;;
549;SDS011;20066;48.764;9.176;2023-02-02T04:59:41;5.85;;;1.35;;
549;SDS011;20066;48.764;9.176;2023-02-02T05:02:10;5.30;;;1.92;;
549;SDS011;20066;48.764;9.176;2023-02-02T05:04:37;6.85;;;1.48;;
549;SDS011;20066;48.764;9.176;2023-02-02T05:07:05;3.72;;;1.25;;
549;SDS011;20066;48.764;9.176;2023-02-02T05:09:33;3.20;;;1.30;;
549;SDS011;20066;48.764;9.176;2023-02-02T05:12:00;4.07;;;1.60;;
549;SDS011;20066;48.764;9.176;2023-02-02T05:14:28;5.55;;;1.55;;
549;SDS011;20066;48.764;9.176;2023-02-02T05:16:56;8.23;;;1.55;;
549;SDS011;20066;48.764;9.176;2023-02-02T05:19:25;4.40;;;1.30;;
549;SDS011;20066;48.764;9.176;2023-02-02T05:21:53;5.20;;;1.50;;
549;SDS011;20066;48.764;9.176;2023-02-02T05:24:21;7.95;;;2.35;;
549;SDS011;20066;48.764;9.176;2023-02-02T05:26:48;12.65;;;1.85;;
549;SDS011;20066;48.764;9.176;2023-02-02T05:29:18;4.25;;;1.52;;
549;SDS011;20066;48.764;9.176;2023-02-02T05:31:45;7.20;;;1.40;;
549;SDS011;20066;48.764;9.176;2023-02-02T05:34:13;5.07;;;1.50;;
549;SDS011;20066;48.764;9.176;2023-02-02T05:36:42;6.72;;;1.73;;
549;SDS011;20066;48.764;9.176;2023-02-02T05:39:10;8.75;;;1.88;;
549;SDS011;20066;48.764;9.176;2023-02-02T05:41:38;6.97;;;1.58;;
549;SDS011;20066;48.764;9.176;2023-02-02T05:44:07;6.88;;;1.85;;
549;SDS011;20066;48.764;9.176;2023-02-02T05:46:35;4.32;;;1.70;;
549;SDS011;20066;48.764;9.176;2023-02-02T05:49:03;3.85;;;1.58;;
549;SDS011;20066;48.764;9.176;2023-02-02T05:51:32;4.93;;;1.92;;
549;SDS011;20066;48.764;9.176;2023-02-02T05:54:04;8.70;;;2.00;;
549;SDS011;20066;48.764;9.176;2023-02-02T05:56:32;6.38;;;1.90;;
549;SDS011;20066;48.764;9.176;2023-02-02T05:59:00;5.97;;;1.95;;
549;SDS011;20066;48.764;9.176;2023-02-02T06:01:30;11.02;;;2.30;;
549;SDS011;20066;48.764;9.176;2023-02-02T06:03:57;6.75;;;1.95;;
549;SDS011;20066;48.764;9.176;2023-02-02T06:06:25;6.03;;;1.75;;
549;SDS011;20066;48.764;9.176;2023-02-02T06:08:53;3.78;;;1.80;;
549;SDS011;20066;48.764;9.176;2023-02-02T06:11:22;3.58;;;1.90;;
549;SDS011;20066;48.764;9.176;2023-02-02T06:13:50;8.18;;;2.00;;
549;SDS011;20066;48.764;9.176;2023-02-02T06:16:17;5.18;;;1.83;;
549;SDS011;20066;48.764;9.176;2023-02-02T06:18:46;11.13;;;3.20;;
549;SDS011;20066;48.764;9.176;2023-02-02T06:21:14;6.60;;;1.60;;
549;SDS011;20066;48.764;9.176;2023-02-02T06:23:51;11.02;;;3.65;;
549;SDS011;20066;48.764;9.176;2023-02-02T06:26:19;7.20;;;2.35;;
549;SDS011;20066;48.764;9.176;2023-02-02T06:28:49;8.63;;;2.15;;
549;SDS011;20066;48.764;9.176;2023-02-02T06:31:18;7.85;;;1.85;;
549;SDS011;20066;48.764;9.176;2023-02-02T06:33:47;10.38;;;2.58;;
549;SDS011;20066;48.764;9.176;2023-02-02T06:36:18;10.48;;;2.45;;
549;SDS011;20066;48.764;9.176;2023-02-02T06:38:47;7.53;;;1.80;;
549;SDS011;20066;48.764;9.176;2023-02-02T06:41:16;22.67;;;2.75;;
549;SDS011;20066;48.764;9.176;2023-02-02T06:43:44;12.80;;;2.92;;
549;SDS011;20066;48.764;9.176;2023-02-02T06:46:13;6.50;;;2.03;;
549;SDS011;20066;48.764;9.176;2023-02-02T06:48:41;7.13;;;2.17;;
549;SDS011;20066;48.764;9.176;2023-02-02T06:51:09;11.02;;;3.25;;
549;SDS011;20066;48.764;9.176;2023-02-02T06:53:36;15.95;;;3.08;;
549;SDS011;20066;48.764;9.176;2023-02-02T06:56:05;11.95;;;2.42;;
549;SDS011;20066;48.764;9.176;2023-02-02T06:58:34;9.98;;;2.42;;
549;SDS011;20066;48.764;9.176;2023-02-02T07:01:02;7.57;;;2.33;;
549;SDS011;20066;48.764;9.176;2023-02-02T07:03:33;7.05;;;2.10;;
549;SDS011;20066;48.764;9.176;2023-02-02T07:06:09;6.70;;;1.75;;
549;SDS011;20066;48.764;9.176;2023-02-02T07:08:38;6.00;;;2.55;;
549;SDS011;20066;48.764;9.176;2023-02-02T07:11:06;12.70;;;1.90;;
549;SDS011;20066;48.764;9.176;2023-02-02T07:13:41;5.28;;;1.92;;
549;SDS011;20066;48.764;9.176;2023-02-02T07:16:10;6.85;;;1.85;;
549;SDS011;20066;48.764;9.176;2023-02-02T07:18:40;4.40;;;1.70;;
549;SDS011;20066;48.764;9.176;2023-02-02T07:21:14;4.03;;;2.00;;
549;SDS011;20066;48.764;9.176;2023-02-02T07:23:43;13.00;;;1.65;;
549;SDS011;20066;48.764;9.176;2023-02-02T07:26:12;5.10;;;1.55;;
549;SDS011;20066;48.764;9.176;2023-02-02T07:28:40;6.07;;;1.45;;
549;SDS011;20066;48.764;9.176;2023-02-02T07:31:11;5.90;;;1.50;;
549;SDS011;20066;48.764;9.176;2023-02-02T07:33:42;3.75;;;1.60;;
549;SDS011;20066;48.764;9.176;2023-02-02T07:36:11;7.82;;;1.55;;
549;SDS011;20066;48.764;9.176;2023-02-02T07:38:41;4.88;;;1.50;;
549;SDS011;20066;48.764;9.176;2023-02-02T07:41:09;3.00;;;1.20;;
549;SDS011;20066;48.764;9.176;2023-02-02T07:43:37;2.55;;;1.30;;
549;SDS011;20066;48.764;9.176;2023-02-02T07:46:05;4.47;;;1.10;;
549;SDS011;20066;48.764;9.176;2023-02-02T07:48:38;3.03;;;1.33;;
549;SDS011;20066;48.764;9.176;2023-02-02T07:51:07;5.65;;;1.60;;
549;SDS011;20066;48.764;9.176;2023-02-02T07:53:36;4.85;;;1.60;;
549;SDS011;20066;48.764;9.176;2023-02-02T07:56:05;4.35;;;1.40;;
549;SDS011;20066;48.764;9.176;2023-02-02T07:58:34;8.20;;;1.65;;
549;SDS011;20066;48.764;9.176;2023-02-02T08:01:02;3.15;;;1.50;;
549;SDS011;20066;48.764;9.176;2023-02-02T08:03:32;6.00;;;1.80;;
549;SDS011;20066;48.764;9.176;2023-02-02T08:06:06;9.27;;;2.50;;
549;SDS011;20066;48.764;9.176;2023-02-02T08:08:38;6.90;;;1.90;;
549;SDS011;20066;48.764;9.176;2023-02-02T08:11:07;9.80;;;1.67;;
549;SDS011;20066;48.764;9.176;2023-02-02T08:13:35;6.43;;;2.03;;
549;SDS011;20066;48.764;9.176;2023-02-02T08:16:03;9.48;;;2.50;;
549;SDS011;20066;48.764;9.176;2023-02-02T08:18:32;3.97;;;1.67;;
549;SDS011;20066;48.764;9.176;2023-02-02T08:21:00;6.40;;;2.20;;
549;SDS011;20066;48.764;9.176;2023-02-02T08:23:31;9.32;;;1.90;;
549;SDS011;20066;48.764;9.176;2023-02-02T08:26:04;5.50;;;1.60;;
549;SDS011;20066;48.764;9.176;2023-02-02T08:28:32;7.55;;;2.25;;
549;SDS011;20066;48.764;9.176;2023-02-02T08:31:05;5.43;;;1.90;;
549;SDS011;20066;48.764;9.176;2023-02-02T08:33:34;7.82;;;1.63;;
549;SDS011;20066;48.764;9.176;2023-02-02T08:36:07;9.63;;;2.15;;
549;SDS011;20066;48.764;9.176;2023-02-02T08:38:39;7.55;;;1.90;;
549;SDS011;20066;48.764;9.176;2023-02-02T08:41:07;5.93;;;2.80;;
549;SDS011;20066;48.764;9.176;2023-02-02T08:43:37;8.52;;;1.90;;
549;SDS011;20066;48.764;9.176;2023-02-02T08:46:06;14.82;;;3.55;;
549;SDS011;20066;48.764;9.176;2023-02-02T08:48:35;7.00;;;2.45;;
549;SDS011;20066;48.764;9.176;2023-02-02T08:51:04;10.70;;;3.38;;
549;SDS011;20066;48.764;9.176;2023-02-02T08:53:33;13.40;;;3.42;;
549;SDS011;20066;48.764;9.176;2023-02-02T08:56:03;10.98;;;2.40;;
549;SDS011;20066;48.764;9.176;2023-02-02T08:58:32;9.20;;;1.98;;
549;SDS011;20066;48.764;9.176;2023-02-02T09:01:04;9.38;;;2.30;;
549;SDS011;20066;48.764;9.176;2023-02-02T09:03:32;10.43;;;2.47;;
549;SDS011;20066;48.764;9.176;2023-02-02T09:06:04;8.80;;;3.20;;
549;SDS011;20066;48.764;9.176;2023-02-02T09:08:32;14.98;;;3.47;;
549;SDS011;20066;48.764;9.176;2023-02-02T09:11:06;10.13;;;2.63;;
549;SDS011;20066;48.764;9.176;2023-02-02T09:13:36;4.88;;;1.80;;
549;SDS011;20066;48.764;9.176;2023-02-02T09:16:06;6.55;;;2.00;;
549;SDS011;20066;48.764;9.176;2023-02-02T09:18:35;6.90;;;1.95;;
549;SDS011;20066;48.764;9.176;2023-02-02T09:21:04;8.98;;;2.53;;
549;SDS011;20066;48.764;9.176;2023-02-02T09:23:34;7.30;;;2.40;;
549;SDS011;20066;48.764;9.176;2023-02-02T09:26:11;7.85;;;2.65;;
549;SDS011;20066;48.764;9.176;2023-02-02T09:28:40;6.40;;;2.13;;
549;SDS011;20066;48.764;9.176;2023-02-02T09:31:10;6.00;;;2.25;;
549;SDS011;20066;48.764;9.176;2023-02-02T09:33:39;9.73;;;2.13;;
549;SDS011;20066;48.764;9.176;2023-02-02T09:36:08;10.48;;;2.30;;
549;SDS011;20066;48.764;9.176;2023-02-02T09:38:37;8.98;;;2.83;;
549;SDS011;20066;48.764;9.176;2023-02-02T09:41:34;7.28;;;2.67;;
549;SDS011;20066;48.764;9.176;2023-02-02T09:44:24;7.03;;;2.60;;
549;SDS011;20066;48.764;9.176;2023-02-02T09:47:07;9.40;;;2.30;;
549;SDS011;20066;48.764;9.176;2023-02-02T09:49:47;12.20;;;3.30;;
549;SDS011;20066;48.764;9.176;2023-02-02T09:52:23;10.30;;;3.35;;
549;SDS011;20066;48.764;9.176;2023-02-02T09:54:55;13.07;;;2.60;;
549;SDS011;20066;48.764;9.176;2023-02-02T09:57:30;8.98;;;2.45;;
549;SDS011;20066;48.764;9.176;2023-02-02T10:00:04;7.90;;;2.55;;
549;SDS011;20066;48.764;9.176;2023-02-02T10:02:37;12.13;;;2.50;;
549;SDS011;20066;48.764;9.176;2023-02-02T10:05:11;7.63;;;2.85;;
549;SDS011;20066;48.764;9.176;2023-02-02T10:07:43;7.45;;;2.33;;
549;SDS011;20066;48.764;9.176;2023-02-02T10:10:14;8.90;;;2.53;;
549;SDS011;20066;48.764;9.176;2023-02-02T10:12:46;7.28;;;2.58;;
549;SDS011;20066;48.764;9.176;2023-02-02T10:15:25;10.77;;;2.63;;
549;SDS011;20066;48.764;9.176;2023-02-02T10:18:03;6.75;;;2.20;;
549;SDS011;20066;48.764;9.176;2023-02-02T10:20:38;8.52;;;2.53;;
549;SDS011;20066;48.764;9.176;2023-02-02T10:23:12;8.80;;;3.20;;
549;SDS011;20066;48.764;9.176;2023-02-02T10:25:49;12.27;;;3.50;;
549;SDS011;20066;48.764;9.176;2023-02-02T10:28:29;12.57;;;2.67;;
549;SDS011;20066;48.764;9.176;2023-02-02T10:31:09;14.27;;;2.80;;
549;SDS011;20066;48.764;9.176;2023-02-02T10:33:51;11.63;;;3.40;;
549;SDS011;20066;48.764;9.176;2023-02-02T10:36:31;8.63;;;2.92;;
549;SDS011;20066;48.764;9.176;2023-02-02T10:39:13;7.85;;;2.95;;
549;SDS011;20066;48.764;9.176;2023-02-02T10:41:48;16.20;;;2.78;;
549;SDS011;20066;48.764;9.176;2023-02-02T10:44:29;11.85;;;2.72;;
549;SDS011;20066;48.764;9.176;2023-02-02T10:47:03;14.32;;;2.97;;
549;SDS011;20066;48.764;9.176;2023-02-02T10:49:36;8.80;;;2.40;;
549;SDS011;20066;48.764;9.176;2023-02-02T10:52:11;12.82;;;3.40;;
549;SDS011;20066;48.764;9.176;2023-02-02T10:54:44;8.25;;;2.20;;
549;SDS011;20066;48.764;9.176;2023-02-02T10:57:26;6.85;;;2.42;;
549;SDS011;20066;48.764;9.176;2023-02-02T11:00:04;10.23;;;2.40;;
549;SDS011;20066;48.764;9.176;2023-02-02T11:02:41;11.52;;;2.47;;
549;SDS011;20066;48.764;9.176;2023-02-02T11:05:11;9.75;;;2.75;;
549;SDS011;20066;48.764;9.176;2023-02-02T11:07:59;5.80;;;2.30;;
549;SDS011;20066;48.764;9.176;2023-02-02T11:10:27;8.15;;;2.17;;
549;SDS011;20066;48.764;9.176;2023-02-02T11:12:54;9.88;;;2.70;;
549;SDS011;20066;48.764;9.176;2023-02-02T11:15:28;6.57;;;1.90;;
549;SDS011;20066;48.764;9.176;2023-02-02T11:18:01;14.93;;;3.90;;
549;SDS011;20066;48.764;9.176;2023-02-02T11:20:41;9.80;;;2.50;;
549;SDS011;20066;48.764;9.176;2023-02-02T11:23:15;10.27;;;3.25;;
549;SDS011;20066;48.764;9.176;2023-02-02T11:25:45;7.07;;;1.88;;
549;SDS011;20066;48.764;9.176;2023-02-02T11:28:23;5.03;;;2.50;;
549;SDS011;20066;48.764;9.176;2023-02-02T11:30:56;8.45;;;3.20;;
549;SDS011;20066;48.764;9.176;2023-02-02T11:33:25;9.93;;;1.90;;
549;SDS011;20066;48.764;9.176;2023-02-02T11:35:55;12.50;;;2.70;;
549;SDS011;20066;48.764;9.176;2023-02-02T11:38:24;6.40;;;1.92;;
549;SDS011;20066;48.764;9.176;2023-02-02T11:40:53;11.10;;;2.72;;
549;SDS011;20066;48.764;9.176;2023-02-02T11:43:25;6.22;;;2.22;;
549;SDS011;20066;48.764;9.176;2023-02-02T11:45:57;8.23;;;2.15;;
549;SDS011;20066;48.764;9.176;2023-02-02T11:48:29;10.75;;;2.20;;
549;SDS011;20066;48.764;9.176;2023-02-02T11:51:00;8.63;;;2.15;;
549;SDS011;20066;48.764;9.176;2023-02-02T11:53:30;10.73;;;3.45;;
549;SDS011;20066;48.764;9.176;2023-02-02T11:56:00;12.27;;;2.70;;
549;SDS011;20066;48.764;9.176;2023-02-02T11:58:41;7.80;;;2.30;;
549;SDS011;20066;48.764;9.176;2023-02-02T12:01:25;7.70;;;2.20;;
549;SDS011;20066;48.764;9.176;2023-02-02T12:03:54;5.10;;;1.75;;
549;SDS011;20066;48.764;9.176;2023-02-02T12:06:23;8.35;;;2.00;;
549;SDS011;20066;48.764;9.176;2023-02-02T12:08:52;7.30;;;2.20;;
549;SDS011;20066;48.764;9.176;2023-02-02T12:11:27;8.73;;;2.20;;
549;SDS011;20066;48.764;9.176;2023-02-02T12:14:09;4.38;;;1.90;;
549;SDS011;20066;48.764;9.176;2023-02-02T12:16:53;6.85;;;1.92;;
549;SDS011;20066;48.764;9.176;2023-02-02T12:19:37;4.95;;;2.20;;
549;SDS011;20066;48.764;9.176;2023-02-02T12:22:18;4.15;;;1.95;;
549;SDS011;20066;48.764;9.176;2023-02-02T12:24:55;7.22;;;2.45;;
549;SDS011;20066;48.764;9.176;2023-02-02T12:27:30;7.15;;;2.35;;
549;SDS011;20066;48.764;9.176;2023-02-02T12:30:14;6.63;;;2.60;;
549;SDS011;20066;48.764;9.176;2023-02-02T12:32:56;3.92;;;2.28;;
549;SDS011;20066;48.764;9.176;2023-02-02T12:35:47;9.05;;;2.22;;
549;SDS011;20066;48.764;9.176;2023-02-02T12:38:24;25.65;;;2.65;;
549;SDS011;20066;48.764;9.176;2023-02-02T12:41:13;11.38;;;2.53;;
549;SDS011;20066;48.764;9.176;2023-02-02T12:43:46;7.65;;;1.70;;
549;SDS011;20066;48.764;9.176;2023-02-02T12:46:32;6.13;;;2.90;;
549;SDS011;20066;48.764;9.176;2023-02-02T12:52:16;9.88;;;3.28;;
549;SDS011;20066;48.764;9.176;2023-02-02T12:55:03;7.13;;;2.38;;
549;SDS011;20066;48.764;9.176;2023-02-02T12:57:47;4.38;;;2.00;;
549;SDS011;20066;48.764;9.176;2023-02-02T13:03:19;9.48;;;2.17;;
549;SDS011;20066;48.764;9.176;2023-02-02T13:05:57;9.00;;;2.80;;
549;SDS011;20066;48.764;9.176;2023-02-02T13:08:38;22.75;;;3.25;;
549;SDS011;20066;48.764;9.176;2023-02-02T13:11:14;13.10;;;3.00;;
549;SDS011;20066;48.764;9.176;2023-02-02T13:13:56;13.65;;;3.08;;
549;SDS011;20066;48.764;9.176;2023-02-02T13:16:28;6.15;;;1.98;;
549;SDS011;20066;48.764;9.176;2023-02-02T13:18:58;9.82;;;2.30;;
549;SDS011;20066;48.764;9.176;2023-02-02T13:21:32;4.63;;;1.90;;
549;SDS011;20066;48.764;9.176;2023-02-02T13:24:03;8.38;;;2.83;;
549;SDS011;20066;48.764;9.176;2023-02-02T13:26:33;14.00;;;3.47;;
549;SDS011;20066;48.764;9.176;2023-02-02T13:29:05;12.18;;;3.15;;
549;SDS011;20066;48.764;9.176;2023-02-02T13:31:39;13.00;;;3.30;;
549;SDS011;20066;48.764;9.176;2023-02-02T13:34:13;8.70;;;2.67;;
549;SDS011;20066;48.764;9.176;2023-02-02T13:36:47;5.00;;;2.20;;
549;SDS011;20066;48.764;9.176;2023-02-02T13:39:21;11.05;;;2.72;;
549;SDS011;20066;48.764;9.176;2023-02-02T13:41:59;11.18;;;2.85;;
549;SDS011;20066;48.764;9.176;2023-02-02T13:44:30;3.65;;;2.08;;
549;SDS011;20066;48.764;9.176;2023-02-02T13:47:02;9.57;;;2.45;;
549;SDS011;20066;48.764;9.176;2023-02-02T13:49:35;8.52;;;2.67;;
549;SDS011;20066;48.764;9.176;2023-02-02T13:52:15;9.00;;;2.50;;
549;SDS011;20066;48.764;9.176;2023-02-02T13:58:03;6.25;;;2.60;;
549;SDS011;20066;48.764;9.176;2023-02-02T14:00:44;10.80;;;4.47;;
549;SDS011;20066;48.764;9.176;2023-02-02T14:03:21;7.40;;;3.15;;
549;SDS011;20066;48.764;9.176;2023-02-02T14:06:06;8.65;;;3.03;;
549;SDS011;20066;48.764;9.176;2023-02-02T14:08:37;7.07;;;3.05;;
549;SDS011;20066;48.764;9.176;2023-02-02T14:11:16;6.90;;;2.60;;
549;SDS011;20066;48.764;9.176;2023-02-02T14:13:49;7.60;;;2.50;;
549;SDS011;20066;48.764;9.176;2023-02-02T14:22:40;4.72;;;1.95;;
549;SDS011;20066;48.764;9.176;2023-02-02T14:31:25;7.53;;;2.60;;
549;SDS011;20066;48.764;9.176;2023-02-02T14:34:23;14.68;;;2.35;;
549;SDS011;20066;48.764;9.176;2023-02-02T14:37:08;5.75;;;2.53;;
549;SDS011;20066;48.764;9.176;2023-02-02T14:39:50;13.35;;;3.72;;
549;SDS011;20066;48.764;9.176;2023-02-02T14:42:38;11.98;;;2.83;;
549;SDS011;20066;48.764;9.176;2023-02-02T14:45:33;9.00;;;3.70;;
549;SDS011;20066;48.764;9.176;2023-02-02T14:48:06;14.02;;;4.30;;
549;SDS011;20066;48.764;9.176;2023-02-02T14:50:40;12.00;;;3.50;;
549;SDS011;20066;48.764;9.176;2023-02-02T14:55:59;7.63;;;2.58;;
549;SDS011;20066;48.764;9.176;2023-02-02T14:58:31;8.35;;;2.20;;
549;SDS011;20066;48.764;9.176;2023-02-02T15:01:04;3.55;;;1.75;;
549;SDS011;20066;48.764;9.176;2023-02-02T15:03:47;7.78;;;2.10;;
549;SDS011;20066;48.764;9.176;2023-02-02T15:06:25;6.18;;;2.63;;
549;SDS011;20066;48.764;9.176;2023-02-02T15:12:23;9.52;;;2.70;;
549;SDS011;20066;48.764;9.176;2023-02-02T15:15:03;5.32;;;1.70;;
549;SDS011;20066;48.764;9.176;2023-02-02T15:17:41;5.68;;;1.80;;
549;SDS011;20066;48.764;9.176;2023-02-02T15:20:20;14.13;;;2.00;;
549;SDS011;20066;48.764;9.176;2023-02-02T15:22:54;10.73;;;2.33;;
549;SDS011;20066;48.764;9.176;2023-02-02T15:25:27;7.35;;;1.95;;
549;SDS011;20066;48.764;9.176;2023-02-02T15:28:00;12.52;;;2.97;;
549;SDS011;20066;48.764;9.176;2023-02-02T15:30:36;11.48;;;2.53;;
549;SDS011;20066;48.764;9.176;2023-02-02T15:33:14;7.00;;;2.60;;
549;SDS011;20066;48.764;9.176;2023-02-02T15:35:48;8.35;;;3.03;;
549;SDS011;20066;48.764;9.176;2023-02-02T15:38:19;5.60;;;2.47;;
549;SDS011;20066;48.764;9.176;2023-02-02T15:40:48;10.07;;;1.90;;
549;SDS011;20066;48.764;9.176;2023-02-02T15:43:16;6.47;;;2.20;;
549;SDS011;20066;48.764;9.176;2023-02-02T15:45:46;9.82;;;2.60;;
549;SDS011;20066;48.764;9.176;2023-02-02T15:48:20;8.50;;;2.35;;
549;SDS011;20066;48.764;9.176;2023-02-02T15:50:50;11.50;;;2.90;;
549;SDS011;20066;48.764;9.176;2023-02-02T15:53:22;7.53;;;2.47;;
549;SDS011;20066;48.764;9.176;2023-02-02T15:55:52;5.25;;;2.17;;
549;SDS011;20066;48.764;9.176;2023-02-02T15:58:22;8.52;;;2.13;;
549;SDS011;20066;48.764;9.176;2023-02-02T16:01:04;10.30;;;2.50;;
549;SDS011;20066;48.764;9.176;2023-02-02T16:03:42;8.02;;;2.40;;
549;SDS011;20066;48.764;9.176;2023-02-02T16:06:16;13.43;;;3.25;;
549;SDS011;20066;48.764;9.176;2023-02-02T16:08:44;14.43;;;3.80;;
549;SDS011;20066;48.764;9.176;2023-02-02T16:11:16;11.38;;;3.75;;
549;SDS011;20066;48.764;9.176;2023-02-02T16:13:52;11.38;;;3.55;;
549;SDS011;20066;48.764;9.176;2023-02-02T16:16:29;9.75;;;4.00;;
549;SDS011;20066;48.764;9.176;2023-02-02T16:19:03;10.20;;;2.88;;
549;SDS011;20066;48.764;9.176;2023-02-02T16:21:40;10.57;;;4.75;;